This is the latest recevied weather packets stored in our database for station/object SQ5RTW-1. If no packets are shown the sender has not sent any weather packets the latest 10 day(s).
| Time | Temp. | Humidity | Pressure | Rain* | Wind** | Luminosity | Snow |
|---|---|---|---|---|---|---|---|
| 1777293510 | 18.89° C | 20% | 1023.2 hPa | - | - | - | - |
| 1777292609 | 20° C | 21% | 1023.3 hPa | - | - | - | - |
| 1777292593 | 21.67° C | 21% | 1023.3 hPa | - | - | - | - |
| 1777291858 | 16.11° C | 24% | 1023.2 hPa | - | - | - | - |
| 1777290958 | 21.11° C | 21% | 1023.5 hPa | - | - | - | - |
| 1777290916 | 18.89° C | 22% | 1023.5 hPa | - | - | - | - |
| 1777290016 | 18.33° C | 22% | 1023.5 hPa | - | - | - | - |
| 1777289114 | 18.89° C | 21% | 1023.5 hPa | - | - | - | - |
| 1777288214 | 17.78° C | 23% | 1023.7 hPa | - | - | - | - |
| 1777287313 | 17.78° C | 24% | 1023.7 hPa | - | - | - | - |
| 1777287294 | 16.11° C | 24% | 1023.7 hPa | - | - | - | - |
| 1777286393 | 17.78° C | 23% | 1023.8 hPa | - | - | - | - |
| 1777285492 | 16.67° C | 25% | 1023.9 hPa | - | - | - | - |
| 1777284591 | 17.78° C | 26% | 1024 hPa | - | - | - | - |
| 1777284575 | 17.78° C | 26% | 1024 hPa | - | - | - | - |
| 1777284550 | 15.56° C | 27% | 1023.9 hPa | - | - | - | - |
| 1777283649 | 16.11° C | 26% | 1024 hPa | - | - | - | - |
| 1777282749 | 16.67° C | 25% | 1024.1 hPa | - | - | - | - |
| 1777281848 | 16.11° C | 27% | 1024.2 hPa | - | - | - | - |
| 1777280946 | 14.44° C | 28% | 1024.2 hPa | - | - | - | - |
| 1777280046 | 16.11° C | 28% | 1024.4 hPa | - | - | - | - |
| 1777280029 | 17.22° C | 28% | 1024.2 hPa | - | - | - | - |
| 1777280004 | 15° C | 28% | 1024.4 hPa | - | - | - | - |
| 1777279103 | 15° C | 28% | 1024.6 hPa | - | - | - | - |
| 1777278203 | 15.56° C | 27% | 1024.5 hPa | - | - | - | - |
* Rain since midnight (hover to see other rain measurements)
** Current wind speed in m/s (hover to see current wind gust speed)